sensor_id;sensor_type;location;lat;lon;timestamp;temperature;humidity
39825;DHT22;25503;52.532;13.640;2023-02-18T00:02:12;7.50;99.90
39825;DHT22;25503;52.532;13.640;2023-02-18T00:04:38;7.50;99.90
39825;DHT22;25503;52.532;13.640;2023-02-18T00:07:04;7.50;99.90
39825;DHT22;25503;52.532;13.640;2023-02-18T00:09:29;7.50;99.90
39825;DHT22;25503;52.532;13.640;2023-02-18T00:11:55;7.40;99.90
39825;DHT22;25503;52.532;13.640;2023-02-18T00:14:20;7.40;99.90
39825;DHT22;25503;52.532;13.640;2023-02-18T00:16:46;7.40;99.90
39825;DHT22;25503;52.532;13.640;2023-02-18T00:19:15;7.40;99.90
39825;DHT22;25503;52.532;13.640;2023-02-18T00:21:41;7.40;99.90
39825;DHT22;25503;52.532;13.640;2023-02-18T00:24:07;7.40;99.90
39825;DHT22;25503;52.532;13.640;2023-02-18T00:26:34;7.40;99.90
39825;DHT22;25503;52.532;13.640;2023-02-18T00:29:00;7.40;99.90
39825;DHT22;25503;52.532;13.640;2023-02-18T00:31:31;7.50;99.90
39825;DHT22;25503;52.532;13.640;2023-02-18T00:33:57;7.40;99.90
39825;DHT22;25503;52.532;13.640;2023-02-18T00:36:24;7.50;99.90
39825;DHT22;25503;52.532;13.640;2023-02-18T00:38:52;7.40;99.90
39825;DHT22;25503;52.532;13.640;2023-02-18T00:41:19;7.40;99.90
39825;DHT22;25503;52.532;13.640;2023-02-18T00:43:45;7.40;99.90
39825;DHT22;25503;52.532;13.640;2023-02-18T00:46:11;7.40;99.90
39825;DHT22;25503;52.532;13.640;2023-02-18T00:48:37;7.40;99.90
39825;DHT22;25503;52.532;13.640;2023-02-18T00:51:04;7.30;99.90
39825;DHT22;25503;52.532;13.640;2023-02-18T00:53:30;7.30;99.90
39825;DHT22;25503;52.532;13.640;2023-02-18T00:55:56;7.30;99.90
39825;DHT22;25503;52.532;13.640;2023-02-18T00:58:22;7.30;99.90
39825;DHT22;25503;52.532;13.640;2023-02-18T01:00:48;7.30;99.90
39825;DHT22;25503;52.532;13.640;2023-02-18T01:03:13;7.20;99.90
39825;DHT22;25503;52.532;13.640;2023-02-18T01:05:40;7.20;99.90
39825;DHT22;25503;52.532;13.640;2023-02-18T01:08:07;7.20;99.90
39825;DHT22;25503;52.532;13.640;2023-02-18T01:10:33;7.20;99.90
39825;DHT22;25503;52.532;13.640;2023-02-18T01:12:59;7.10;99.90
39825;DHT22;25503;52.532;13.640;2023-02-18T01:15:25;7.10;99.90
39825;DHT22;25503;52.532;13.640;2023-02-18T01:17:51;7.10;99.90
39825;DHT22;25503;52.532;13.640;2023-02-18T01:20:18;7.10;99.90
39825;DHT22;25503;52.532;13.640;2023-02-18T01:22:43;7.00;99.90
39825;DHT22;25503;52.532;13.640;2023-02-18T01:25:09;7.00;99.90
39825;DHT22;25503;52.532;13.640;2023-02-18T01:27:35;7.00;99.90
39825;DHT22;25503;52.532;13.640;2023-02-18T01:30:03;7.00;99.90
39825;DHT22;25503;52.532;13.640;2023-02-18T01:32:29;6.90;99.90
39825;DHT22;25503;52.532;13.640;2023-02-18T01:34:54;6.90;99.90
39825;DHT22;25503;52.532;13.640;2023-02-18T01:37:20;6.90;99.90
39825;DHT22;25503;52.532;13.640;2023-02-18T01:39:46;6.90;99.90
39825;DHT22;25503;52.532;13.640;2023-02-18T01:42:26;6.90;99.90
39825;DHT22;25503;52.532;13.640;2023-02-18T01:44:52;6.90;99.90
39825;DHT22;25503;52.532;13.640;2023-02-18T01:47:18;6.90;99.90
39825;DHT22;25503;52.532;13.640;2023-02-18T01:49:46;6.80;99.90
39825;DHT22;25503;52.532;13.640;2023-02-18T01:52:16;6.80;99.90
39825;DHT22;25503;52.532;13.640;2023-02-18T01:54:46;6.80;99.90
39825;DHT22;25503;52.532;13.640;2023-02-18T01:57:15;6.80;99.90
39825;DHT22;25503;52.532;13.640;2023-02-18T01:59:48;6.80;99.90
39825;DHT22;25503;52.532;13.640;2023-02-18T02:02:17;6.80;99.90
39825;DHT22;25503;52.532;13.640;2023-02-18T02:04:44;6.80;99.90
39825;DHT22;25503;52.532;13.640;2023-02-18T02:07:10;6.80;99.90
39825;DHT22;25503;52.532;13.640;2023-02-18T02:09:37;6.80;99.90
39825;DHT22;25503;52.532;13.640;2023-02-18T02:36:38;6.60;99.90
39825;DHT22;25503;52.532;13.640;2023-02-18T02:39:13;6.60;99.90
39825;DHT22;25503;52.532;13.640;2023-02-18T02:44:38;6.60;99.90
39825;DHT22;25503;52.532;13.640;2023-02-18T02:47:25;6.60;99.90
39825;DHT22;25503;52.532;13.640;2023-02-18T02:50:04;6.60;99.90
39825;DHT22;25503;52.532;13.640;2023-02-18T02:52:39;6.60;99.90
39825;DHT22;25503;52.532;13.640;2023-02-18T02:55:10;6.60;99.90
39825;DHT22;25503;52.532;13.640;2023-02-18T03:00:07;6.60;99.90
39825;DHT22;25503;52.532;13.640;2023-02-18T03:11:05;6.60;99.90
39825;DHT22;25503;52.532;13.640;2023-02-18T03:14:01;6.60;99.90
39825;DHT22;25503;52.532;13.640;2023-02-18T03:16:52;6.60;99.90
39825;DHT22;25503;52.532;13.640;2023-02-18T03:22:19;6.60;99.90
39825;DHT22;25503;52.532;13.640;2023-02-18T03:24:47;6.60;99.90
39825;DHT22;25503;52.532;13.640;2023-02-18T03:27:27;6.60;99.90
39825;DHT22;25503;52.532;13.640;2023-02-18T03:29:58;6.60;99.90
39825;DHT22;25503;52.532;13.640;2023-02-18T03:32:26;6.60;99.90
39825;DHT22;25503;52.532;13.640;2023-02-18T03:34:58;6.60;99.90
39825;DHT22;25503;52.532;13.640;2023-02-18T03:37:26;6.60;99.90
39825;DHT22;25503;52.532;13.640;2023-02-18T03:39:55;6.60;99.90
39825;DHT22;25503;52.532;13.640;2023-02-18T03:42:26;6.60;99.90
39825;DHT22;25503;52.532;13.640;2023-02-18T03:44:52;6.60;99.90
39825;DHT22;25503;52.532;13.640;2023-02-18T03:47:18;6.60;99.90
39825;DHT22;25503;52.532;13.640;2023-02-18T03:49:43;6.60;99.90
39825;DHT22;25503;52.532;13.640;2023-02-18T03:52:09;6.60;99.90
39825;DHT22;25503;52.532;13.640;2023-02-18T03:54:35;6.60;99.90
39825;DHT22;25503;52.532;13.640;2023-02-18T03:57:01;6.60;99.90
39825;DHT22;25503;52.532;13.640;2023-02-18T03:59:27;6.60;99.90
39825;DHT22;25503;52.532;13.640;2023-02-18T04:01:52;6.60;99.90
39825;DHT22;25503;52.532;13.640;2023-02-18T04:04:18;6.60;99.90
39825;DHT22;25503;52.532;13.640;2023-02-18T04:06:44;6.60;99.90
39825;DHT22;25503;52.532;13.640;2023-02-18T04:09:09;6.60;99.90
39825;DHT22;25503;52.532;13.640;2023-02-18T04:11:39;6.60;99.90
39825;DHT22;25503;52.532;13.640;2023-02-18T04:14:05;6.60;99.90
39825;DHT22;25503;52.532;13.640;2023-02-18T04:16:31;6.50;99.90
39825;DHT22;25503;52.532;13.640;2023-02-18T04:18:57;6.50;99.90
39825;DHT22;25503;52.532;13.640;2023-02-18T04:21:22;6.50;99.90
39825;DHT22;25503;52.532;13.640;2023-02-18T04:23:48;6.50;99.90
39825;DHT22;25503;52.532;13.640;2023-02-18T04:26:14;6.50;99.90
39825;DHT22;25503;52.532;13.640;2023-02-18T04:28:39;6.50;99.90
39825;DHT22;25503;52.532;13.640;2023-02-18T04:31:05;6.50;99.90
39825;DHT22;25503;52.532;13.640;2023-02-18T04:33:30;6.50;99.90
39825;DHT22;25503;52.532;13.640;2023-02-18T04:35:56;6.50;99.90
39825;DHT22;25503;52.532;13.640;2023-02-18T04:38:22;6.50;99.90
39825;DHT22;25503;52.532;13.640;2023-02-18T04:40:47;6.50;99.90
39825;DHT22;25503;52.532;13.640;2023-02-18T04:43:13;6.50;99.90
39825;DHT22;25503;52.532;13.640;2023-02-18T04:45:38;6.40;99.90
39825;DHT22;25503;52.532;13.640;2023-02-18T04:48:04;6.40;99.90
39825;DHT22;25503;52.532;13.640;2023-02-18T04:50:30;6.40;99.90
39825;DHT22;25503;52.532;13.640;2023-02-18T04:52:56;6.40;99.90
39825;DHT22;25503;52.532;13.640;2023-02-18T04:55:21;6.40;99.90
39825;DHT22;25503;52.532;13.640;2023-02-18T04:57:47;6.40;99.90
39825;DHT22;25503;52.532;13.640;2023-02-18T05:00:18;6.30;99.90
39825;DHT22;25503;52.532;13.640;2023-02-18T05:02:45;6.40;99.90
39825;DHT22;25503;52.532;13.640;2023-02-18T05:05:11;6.40;99.90
39825;DHT22;25503;52.532;13.640;2023-02-18T05:07:37;6.40;99.90
39825;DHT22;25503;52.532;13.640;2023-02-18T05:10:03;6.40;99.90
39825;DHT22;25503;52.532;13.640;2023-02-18T05:12:29;6.30;99.90
39825;DHT22;25503;52.532;13.640;2023-02-18T05:14:54;6.40;99.90
39825;DHT22;25503;52.532;13.640;2023-02-18T05:17:20;6.40;99.90
39825;DHT22;25503;52.532;13.640;2023-02-18T05:19:46;6.30;99.90
39825;DHT22;25503;52.532;13.640;2023-02-18T05:22:11;6.30;99.90
39825;DHT22;25503;52.532;13.640;2023-02-18T05:24:37;6.30;99.90
39825;DHT22;25503;52.532;13.640;2023-02-18T05:27:03;6.30;99.90
39825;DHT22;25503;52.532;13.640;2023-02-18T05:29:28;6.30;99.90
39825;DHT22;25503;52.532;13.640;2023-02-18T05:31:54;6.30;99.90
39825;DHT22;25503;52.532;13.640;2023-02-18T05:34:19;6.30;99.90
39825;DHT22;25503;52.532;13.640;2023-02-18T05:36:45;6.30;99.90
39825;DHT22;25503;52.532;13.640;2023-02-18T05:39:10;6.30;99.90
39825;DHT22;25503;52.532;13.640;2023-02-18T05:41:36;6.30;99.90
39825;DHT22;25503;52.532;13.640;2023-02-18T05:44:02;6.40;99.90
39825;DHT22;25503;52.532;13.640;2023-02-18T05:46:46;6.40;99.90
39825;DHT22;25503;52.532;13.640;2023-02-18T05:49:11;6.40;99.90
39825;DHT22;25503;52.532;13.640;2023-02-18T05:51:37;6.40;99.90
39825;DHT22;25503;52.532;13.640;2023-02-18T05:54:03;6.40;99.90
39825;DHT22;25503;52.532;13.640;2023-02-18T05:56:29;6.40;99.90
39825;DHT22;25503;52.532;13.640;2023-02-18T05:58:54;6.50;99.90
39825;DHT22;25503;52.532;13.640;2023-02-18T06:01:20;6.50;99.90
39825;DHT22;25503;52.532;13.640;2023-02-18T06:03:45;6.50;99.90
39825;DHT22;25503;52.532;13.640;2023-02-18T06:06:11;6.60;99.90
39825;DHT22;25503;52.532;13.640;2023-02-18T06:08:37;6.60;99.90
39825;DHT22;25503;52.532;13.640;2023-02-18T06:11:02;6.60;99.90
39825;DHT22;25503;52.532;13.640;2023-02-18T06:13:28;6.60;99.90
39825;DHT22;25503;52.532;13.640;2023-02-18T06:15:54;6.70;99.90
39825;DHT22;25503;52.532;13.640;2023-02-18T06:18:20;6.70;99.90
39825;DHT22;25503;52.532;13.640;2023-02-18T06:20:46;6.70;99.90
39825;DHT22;25503;52.532;13.640;2023-02-18T06:23:12;6.70;99.90
39825;DHT22;25503;52.532;13.640;2023-02-18T06:25:38;6.70;99.90
39825;DHT22;25503;52.532;13.640;2023-02-18T06:28:04;6.70;99.90
39825;DHT22;25503;52.532;13.640;2023-02-18T06:30:30;6.70;99.90
39825;DHT22;25503;52.532;13.640;2023-02-18T06:32:55;6.70;99.90
39825;DHT22;25503;52.532;13.640;2023-02-18T06:35:21;6.70;99.90
39825;DHT22;25503;52.532;13.640;2023-02-18T06:37:46;6.80;99.90
39825;DHT22;25503;52.532;13.640;2023-02-18T06:40:12;6.80;99.90
39825;DHT22;25503;52.532;13.640;2023-02-18T06:42:38;6.80;99.90
39825;DHT22;25503;52.532;13.640;2023-02-18T06:45:04;6.80;99.90
39825;DHT22;25503;52.532;13.640;2023-02-18T06:47:31;6.80;99.90
39825;DHT22;25503;52.532;13.640;2023-02-18T06:49:57;6.90;99.90
39825;DHT22;25503;52.532;13.640;2023-02-18T06:52:23;6.90;99.90
39825;DHT22;25503;52.532;13.640;2023-02-18T06:54:48;6.90;99.90
39825;DHT22;25503;52.532;13.640;2023-02-18T06:57:14;6.90;99.90
39825;DHT22;25503;52.532;13.640;2023-02-18T06:59:39;6.90;99.90
39825;DHT22;25503;52.532;13.640;2023-02-18T07:02:05;7.00;99.90
39825;DHT22;25503;52.532;13.640;2023-02-18T07:04:31;7.00;99.90
39825;DHT22;25503;52.532;13.640;2023-02-18T07:06:56;7.00;99.90
39825;DHT22;25503;52.532;13.640;2023-02-18T07:09:22;7.00;99.90
39825;DHT22;25503;52.532;13.640;2023-02-18T07:11:48;7.00;99.90
39825;DHT22;25503;52.532;13.640;2023-02-18T07:14:13;7.00;99.90
39825;DHT22;25503;52.532;13.640;2023-02-18T07:16:39;7.00;99.90
39825;DHT22;25503;52.532;13.640;2023-02-18T07:19:04;7.00;99.90
39825;DHT22;25503;52.532;13.640;2023-02-18T07:21:30;7.10;99.90
39825;DHT22;25503;52.532;13.640;2023-02-18T07:23:55;7.00;99.90
39825;DHT22;25503;52.532;13.640;2023-02-18T07:26:21;7.10;99.90
39825;DHT22;25503;52.532;13.640;2023-02-18T07:28:47;7.10;99.90
39825;DHT22;25503;52.532;13.640;2023-02-18T07:31:12;7.10;99.90
39825;DHT22;25503;52.532;13.640;2023-02-18T07:33:38;7.20;99.90
39825;DHT22;25503;52.532;13.640;2023-02-18T07:36:04;7.20;99.90
39825;DHT22;25503;52.532;13.640;2023-02-18T07:38:30;7.20;99.90
39825;DHT22;25503;52.532;13.640;2023-02-18T07:40:56;7.20;99.90
39825;DHT22;25503;52.532;13.640;2023-02-18T07:43:22;7.20;99.90
39825;DHT22;25503;52.532;13.640;2023-02-18T07:45:48;7.30;99.90
39825;DHT22;25503;52.532;13.640;2023-02-18T07:48:15;7.30;99.90
39825;DHT22;25503;52.532;13.640;2023-02-18T07:50:42;7.30;99.90
39825;DHT22;25503;52.532;13.640;2023-02-18T07:53:10;7.30;99.90
39825;DHT22;25503;52.532;13.640;2023-02-18T07:55:36;7.40;99.90
39825;DHT22;25503;52.532;13.640;2023-02-18T07:58:22;7.40;99.90
39825;DHT22;25503;52.532;13.640;2023-02-18T08:00:49;7.50;99.90
39825;DHT22;25503;52.532;13.640;2023-02-18T08:03:16;7.50;99.90
39825;DHT22;25503;52.532;13.640;2023-02-18T08:05:42;7.50;99.90
39825;DHT22;25503;52.532;13.640;2023-02-18T08:08:12;7.50;99.90
39825;DHT22;25503;52.532;13.640;2023-02-18T08:10:38;7.60;99.90
39825;DHT22;25503;52.532;13.640;2023-02-18T08:13:03;7.60;99.90
39825;DHT22;25503;52.532;13.640;2023-02-18T08:15:29;7.60;99.90
39825;DHT22;25503;52.532;13.640;2023-02-18T08:17:54;7.60;99.90
39825;DHT22;25503;52.532;13.640;2023-02-18T08:20:20;7.60;99.90
39825;DHT22;25503;52.532;13.640;2023-02-18T08:22:46;7.60;99.90
39825;DHT22;25503;52.532;13.640;2023-02-18T08:25:11;7.60;99.90
39825;DHT22;25503;52.532;13.640;2023-02-18T08:27:37;7.60;99.90
39825;DHT22;25503;52.532;13.640;2023-02-18T08:30:03;7.60;99.90
39825;DHT22;25503;52.532;13.640;2023-02-18T08:32:29;7.60;99.90
39825;DHT22;25503;52.532;13.640;2023-02-18T08:34:55;7.60;99.90
39825;DHT22;25503;52.532;13.640;2023-02-18T08:37:20;7.60;99.90
39825;DHT22;25503;52.532;13.640;2023-02-18T08:39:46;7.50;99.90
39825;DHT22;25503;52.532;13.640;2023-02-18T08:42:12;7.50;99.90
39825;DHT22;25503;52.532;13.640;2023-02-18T08:44:38;7.60;99.90
39825;DHT22;25503;52.532;13.640;2023-02-18T08:47:03;7.50;99.90
39825;DHT22;25503;52.532;13.640;2023-02-18T08:49:29;7.50;99.90
39825;DHT22;25503;52.532;13.640;2023-02-18T08:51:54;7.50;99.90
39825;DHT22;25503;52.532;13.640;2023-02-18T08:54:20;7.40;99.90
39825;DHT22;25503;52.532;13.640;2023-02-18T08:56:46;7.40;99.90
39825;DHT22;25503;52.532;13.640;2023-02-18T08:59:11;7.40;99.90
39825;DHT22;25503;52.532;13.640;2023-02-18T09:01:37;7.40;99.90
39825;DHT22;25503;52.532;13.640;2023-02-18T09:04:03;7.40;99.90
39825;DHT22;25503;52.532;13.640;2023-02-18T09:06:28;7.40;99.90
39825;DHT22;25503;52.532;13.640;2023-02-18T09:08:54;7.30;99.90
39825;DHT22;25503;52.532;13.640;2023-02-18T09:11:20;7.40;99.90
39825;DHT22;25503;52.532;13.640;2023-02-18T09:13:46;7.30;99.90
39825;DHT22;25503;52.532;13.640;2023-02-18T09:16:15;7.30;99.90
39825;DHT22;25503;52.532;13.640;2023-02-18T09:18:43;7.30;99.90
39825;DHT22;25503;52.532;13.640;2023-02-18T09:21:11;7.20;99.90
39825;DHT22;25503;52.532;13.640;2023-02-18T09:23:38;7.20;99.90
39825;DHT22;25503;52.532;13.640;2023-02-18T09:26:10;7.20;99.90
39825;DHT22;25503;52.532;13.640;2023-02-18T09:28:38;7.20;99.90
39825;DHT22;25503;52.532;13.640;2023-02-18T09:31:13;7.20;99.90
39825;DHT22;25503;52.532;13.640;2023-02-18T09:33:43;7.20;99.90
39825;DHT22;25503;52.532;13.640;2023-02-18T09:36:09;7.10;99.90
39825;DHT22;25503;52.532;13.640;2023-02-18T09:38:34;7.10;99.90
39825;DHT22;25503;52.532;13.640;2023-02-18T09:41:02;7.10;99.90
39825;DHT22;25503;52.532;13.640;2023-02-18T09:43:39;7.10;99.90
39825;DHT22;25503;52.532;13.640;2023-02-18T09:48:46;7.00;99.90
39825;DHT22;25503;52.532;13.640;2023-02-18T09:51:15;7.00;99.90
39825;DHT22;25503;52.532;13.640;2023-02-18T09:53:42;7.00;99.90
39825;DHT22;25503;52.532;13.640;2023-02-18T09:56:20;7.00;99.90
39825;DHT22;25503;52.532;13.640;2023-02-18T09:58:47;7.00;99.90
39825;DHT22;25503;52.532;13.640;2023-02-18T10:01:33;7.00;99.90
39825;DHT22;25503;52.532;13.640;2023-02-18T10:04:24;7.00;99.90
39825;DHT22;25503;52.532;13.640;2023-02-18T10:06:52;7.00;99.90
39825;DHT22;25503;52.532;13.640;2023-02-18T10:09:38;7.00;99.90
39825;DHT22;25503;52.532;13.640;2023-02-18T10:12:17;6.90;99.90
39825;DHT22;25503;52.532;13.640;2023-02-18T10:14:47;6.90;99.90
39825;DHT22;25503;52.532;13.640;2023-02-18T10:17:15;6.90;99.90
39825;DHT22;25503;52.532;13.640;2023-02-18T10:19:44;6.90;99.90
39825;DHT22;25503;52.532;13.640;2023-02-18T10:22:12;6.90;99.90
39825;DHT22;25503;52.532;13.640;2023-02-18T10:24:41;6.90;99.90
39825;DHT22;25503;52.532;13.640;2023-02-18T10:27:09;6.90;99.90
39825;DHT22;25503;52.532;13.640;2023-02-18T10:29:39;6.90;99.90
39825;DHT22;25503;52.532;13.640;2023-02-18T10:40:52;6.80;99.90
39825;DHT22;25503;52.532;13.640;2023-02-18T10:43:37;6.80;99.90
39825;DHT22;25503;52.532;13.640;2023-02-18T10:46:30;6.80;99.90
39825;DHT22;25503;52.532;13.640;2023-02-18T10:49:32;6.80;99.90
39825;DHT22;25503;52.532;13.640;2023-02-18T10:52:04;6.80;99.90
39825;DHT22;25503;52.532;13.640;2023-02-18T10:57:23;6.80;99.90
39825;DHT22;25503;52.532;13.640;2023-02-18T11:02:37;6.80;99.90
39825;DHT22;25503;52.532;13.640;2023-02-18T11:05:24;6.80;99.90
39825;DHT22;25503;52.532;13.640;2023-02-18T11:07:52;6.90;99.90
39825;DHT22;25503;52.532;13.640;2023-02-18T11:10:25;6.80;99.90
39825;DHT22;25503;52.532;13.640;2023-02-18T11:12:57;6.80;99.90
39825;DHT22;25503;52.532;13.640;2023-02-18T11:15:26;6.80;99.90
39825;DHT22;25503;52.532;13.640;2023-02-18T11:17:54;6.80;99.90
39825;DHT22;25503;52.532;13.640;2023-02-18T11:22:48;6.90;99.90
39825;DHT22;25503;52.532;13.640;2023-02-18T11:25:20;6.90;99.90
39825;DHT22;25503;52.532;13.640;2023-02-18T11:27:54;6.90;99.90
39825;DHT22;25503;52.532;13.640;2023-02-18T11:30:34;6.90;99.90
39825;DHT22;25503;52.532;13.640;2023-02-18T11:33:10;6.90;99.90
39825;DHT22;25503;52.532;13.640;2023-02-18T11:35:40;6.90;99.90
39825;DHT22;25503;52.532;13.640;2023-02-18T11:38:37;6.90;99.90
39825;DHT22;25503;52.532;13.640;2023-02-18T11:41:07;7.00;99.90
39825;DHT22;25503;52.532;13.640;2023-02-18T11:43:34;6.90;99.90
39825;DHT22;25503;52.532;13.640;2023-02-18T11:46:27;6.90;99.90
39825;DHT22;25503;52.532;13.640;2023-02-18T11:48:53;7.00;99.90
39825;DHT22;25503;52.532;13.640;2023-02-18T11:54:00;6.90;99.90
39825;DHT22;25503;52.532;13.640;2023-02-18T11:56:30;6.90;99.90
39825;DHT22;25503;52.532;13.640;2023-02-18T11:58:56;7.00;99.90
39825;DHT22;25503;52.532;13.640;2023-02-18T12:01:45;7.00;99.90
39825;DHT22;25503;52.532;13.640;2023-02-18T12:06:55;7.00;99.90
39825;DHT22;25503;52.532;13.640;2023-02-18T12:09:34;7.00;99.90
39825;DHT22;25503;52.532;13.640;2023-02-18T12:12:06;7.00;99.90
39825;DHT22;25503;52.532;13.640;2023-02-18T12:14:35;7.10;99.90
39825;DHT22;25503;52.532;13.640;2023-02-18T12:17:36;7.10;99.90
39825;DHT22;25503;52.532;13.640;2023-02-18T12:23:18;7.10;99.90
39825;DHT22;25503;52.532;13.640;2023-02-18T12:32:09;7.30;99.90
39825;DHT22;25503;52.532;13.640;2023-02-18T12:40:39;7.60;99.90
39825;DHT22;25503;52.532;13.640;2023-02-18T12:43:33;7.60;99.90
39825;DHT22;25503;52.532;13.640;2023-02-18T13:05:47;8.40;99.90
39825;DHT22;25503;52.532;13.640;2023-02-18T13:08:24;8.60;99.90
39825;DHT22;25503;52.532;13.640;2023-02-18T13:16:40;9.00;99.90
39825;DHT22;25503;52.532;13.640;2023-02-18T13:21:36;9.30;99.90
39825;DHT22;25503;52.532;13.640;2023-02-18T13:24:06;9.40;99.90
39825;DHT22;25503;52.532;13.640;2023-02-18T13:26:35;9.60;99.90
39825;DHT22;25503;52.532;13.640;2023-02-18T13:29:07;9.70;99.90
39825;DHT22;25503;52.532;13.640;2023-02-18T13:37:32;10.00;99.90
39825;DHT22;25503;52.532;13.640;2023-02-18T13:40:00;10.10;99.90
39825;DHT22;25503;52.532;13.640;2023-02-18T13:42:34;10.10;99.90
39825;DHT22;25503;52.532;13.640;2023-02-18T13:45:02;10.20;99.90
39825;DHT22;25503;52.532;13.640;2023-02-18T13:52:51;10.30;99.90
39825;DHT22;25503;52.532;13.640;2023-02-18T13:55:25;10.30;99.90
39825;DHT22;25503;52.532;13.640;2023-02-18T13:57:58;10.40;99.90
39825;DHT22;25503;52.532;13.640;2023-02-18T14:00:34;10.50;99.90
39825;DHT22;25503;52.532;13.640;2023-02-18T14:03:28;10.50;99.90
39825;DHT22;25503;52.532;13.640;2023-02-18T14:05:56;10.50;99.90
39825;DHT22;25503;52.532;13.640;2023-02-18T14:08:32;10.50;99.90
39825;DHT22;25503;52.532;13.640;2023-02-18T14:14:14;10.60;99.90
39825;DHT22;25503;52.532;13.640;2023-02-18T14:22:48;10.60;99.90
39825;DHT22;25503;52.532;13.640;2023-02-18T14:25:32;10.60;99.90
39825;DHT22;25503;52.532;13.640;2023-02-18T14:28:02;10.60;99.90
39825;DHT22;25503;52.532;13.640;2023-02-18T14:30:33;10.60;99.90
39825;DHT22;25503;52.532;13.640;2023-02-18T14:33:00;10.60;99.90
39825;DHT22;25503;52.532;13.640;2023-02-18T14:38:58;10.60;99.90
39825;DHT22;25503;52.532;13.640;2023-02-18T14:41:53;10.60;99.90
39825;DHT22;25503;52.532;13.640;2023-02-18T14:50:12;10.60;99.90
39825;DHT22;25503;52.532;13.640;2023-02-18T14:52:43;10.60;99.90
39825;DHT22;25503;52.532;13.640;2023-02-18T14:58:02;10.70;99.90
39825;DHT22;25503;52.532;13.640;2023-02-18T15:00:41;10.70;99.90
39825;DHT22;25503;52.532;13.640;2023-02-18T15:03:14;10.70;99.90
39825;DHT22;25503;52.532;13.640;2023-02-18T15:05:39;10.70;99.90
39825;DHT22;25503;52.532;13.640;2023-02-18T15:08:20;10.70;99.90
39825;DHT22;25503;52.532;13.640;2023-02-18T15:10:51;10.70;99.90
39825;DHT22;25503;52.532;13.640;2023-02-18T15:13:36;10.70;99.90
39825;DHT22;25503;52.532;13.640;2023-02-18T15:16:15;10.70;99.90
39825;DHT22;25503;52.532;13.640;2023-02-18T15:18:48;10.70;99.90
39825;DHT22;25503;52.532;13.640;2023-02-18T15:21:34;10.60;99.90
39825;DHT22;25503;52.532;13.640;2023-02-18T15:26:52;10.60;99.90
39825;DHT22;25503;52.532;13.640;2023-02-18T15:29:22;10.60;99.90
39825;DHT22;25503;52.532;13.640;2023-02-18T15:31:48;10.60;99.90
39825;DHT22;25503;52.532;13.640;2023-02-18T15:34:35;10.50;99.90
39825;DHT22;25503;52.532;13.640;2023-02-18T15:37:04;10.50;99.90
39825;DHT22;25503;52.532;13.640;2023-02-18T15:39:30;10.50;99.90
39825;DHT22;25503;52.532;13.640;2023-02-18T15:42:05;10.40;99.90
39825;DHT22;25503;52.532;13.640;2023-02-18T15:44:33;10.30;99.90
39825;DHT22;25503;52.532;13.640;2023-02-18T15:47:05;10.10;99.90
39825;DHT22;25503;52.532;13.640;2023-02-18T15:49:34;10.10;99.90
39825;DHT22;25503;52.532;13.640;2023-02-18T15:52:02;10.00;99.90
39825;DHT22;25503;52.532;13.640;2023-02-18T15:54:28;9.90;99.90
39825;DHT22;25503;52.532;13.640;2023-02-18T15:56:55;9.90;99.90
39825;DHT22;25503;52.532;13.640;2023-02-18T16:04:37;9.80;99.90
39825;DHT22;25503;52.532;13.640;2023-02-18T16:07:24;9.80;99.90
39825;DHT22;25503;52.532;13.640;2023-02-18T16:10:06;9.70;99.90
39825;DHT22;25503;52.532;13.640;2023-02-18T16:12:33;9.70;99.90
39825;DHT22;25503;52.532;13.640;2023-02-18T16:15:00;9.60;99.90
39825;DHT22;25503;52.532;13.640;2023-02-18T16:17:27;9.50;99.90
39825;DHT22;25503;52.532;13.640;2023-02-18T16:19:58;9.50;99.90
39825;DHT22;25503;52.532;13.640;2023-02-18T16:24:59;9.40;99.90
39825;DHT22;25503;52.532;13.640;2023-02-18T16:27:37;9.30;99.90
39825;DHT22;25503;52.532;13.640;2023-02-18T16:30:24;9.20;99.90
39825;DHT22;25503;52.532;13.640;2023-02-18T16:32:51;9.20;99.90
39825;DHT22;25503;52.532;13.640;2023-02-18T16:35:17;9.10;99.90
39825;DHT22;25503;52.532;13.640;2023-02-18T16:37:43;9.00;99.90
39825;DHT22;25503;52.532;13.640;2023-02-18T16:40:30;8.90;99.90
39825;DHT22;25503;52.532;13.640;2023-02-18T16:42:57;8.80;99.90
39825;DHT22;25503;52.532;13.640;2023-02-18T16:45:38;8.80;99.90
39825;DHT22;25503;52.532;13.640;2023-02-18T16:48:04;8.70;99.90
39825;DHT22;25503;52.532;13.640;2023-02-18T16:50:32;8.60;99.90
39825;DHT22;25503;52.532;13.640;2023-02-18T16:52:59;8.60;99.90
39825;DHT22;25503;52.532;13.640;2023-02-18T16:55:27;8.50;99.90
39825;DHT22;25503;52.532;13.640;2023-02-18T16:57:54;8.50;99.90
39825;DHT22;25503;52.532;13.640;2023-02-18T17:00:20;8.40;99.90
39825;DHT22;25503;52.532;13.640;2023-02-18T17:02:48;8.40;99.90
39825;DHT22;25503;52.532;13.640;2023-02-18T17:05:23;8.30;99.90
39825;DHT22;25503;52.532;13.640;2023-02-18T17:07:49;8.20;99.90
39825;DHT22;25503;52.532;13.640;2023-02-18T17:10:16;8.10;99.90
39825;DHT22;25503;52.532;13.640;2023-02-18T17:12:41;8.10;99.90
39825;DHT22;25503;52.532;13.640;2023-02-18T17:15:28;8.00;99.90
39825;DHT22;25503;52.532;13.640;2023-02-18T17:17:55;8.00;99.90
39825;DHT22;25503;52.532;13.640;2023-02-18T17:20:24;8.00;99.90
39825;DHT22;25503;52.532;13.640;2023-02-18T17:22:49;7.90;99.90
39825;DHT22;25503;52.532;13.640;2023-02-18T17:25:31;7.90;99.90
39825;DHT22;25503;52.532;13.640;2023-02-18T17:27:58;7.80;99.90
39825;DHT22;25503;52.532;13.640;2023-02-18T17:30:24;7.80;99.90
39825;DHT22;25503;52.532;13.640;2023-02-18T17:32:49;7.80;99.90
39825;DHT22;25503;52.532;13.640;2023-02-18T17:35:17;7.70;99.90
39825;DHT22;25503;52.532;13.640;2023-02-18T17:37:43;7.70;99.90
39825;DHT22;25503;52.532;13.640;2023-02-18T17:40:16;7.70;99.90
39825;DHT22;25503;52.532;13.640;2023-02-18T17:42:42;7.60;99.90
39825;DHT22;25503;52.532;13.640;2023-02-18T17:45:35;7.60;99.90
39825;DHT22;25503;52.532;13.640;2023-02-18T17:48:02;7.50;99.90
39825;DHT22;25503;52.532;13.640;2023-02-18T17:50:29;7.50;99.90
39825;DHT22;25503;52.532;13.640;2023-02-18T17:52:55;7.50;99.90
39825;DHT22;25503;52.532;13.640;2023-02-18T17:55:24;7.40;99.90
39825;DHT22;25503;52.532;13.640;2023-02-18T17:57:50;7.40;99.90
39825;DHT22;25503;52.532;13.640;2023-02-18T18:00:25;7.30;99.90
39825;DHT22;25503;52.532;13.640;2023-02-18T18:02:51;7.30;99.90
39825;DHT22;25503;52.532;13.640;2023-02-18T18:05:22;7.30;99.90
39825;DHT22;25503;52.532;13.640;2023-02-18T18:07:49;7.20;99.90
39825;DHT22;25503;52.532;13.640;2023-02-18T18:10:17;7.20;99.90
39825;DHT22;25503;52.532;13.640;2023-02-18T18:12:43;7.20;99.90
39825;DHT22;25503;52.532;13.640;2023-02-18T18:15:29;7.20;99.90
39825;DHT22;25503;52.532;13.640;2023-02-18T18:17:56;7.10;99.90